Time;durP1;ratioP1;P1;durP2;ratioP2;P2;SDS_P1;SDS_P2;PMS_P1;PMS_P2;Temp;Humidity;BMP_temperature;BMP_pressure;BME280_temperature;BME280_humidity;BME280_pressure;Samples;Min_cycle;Max_cycle;Signal;HPM_P1;HPM_P2
2023/11/23 00:00:07;;;;;;;8.02;6.18;;;22.40;55.50;;;;;;6130983;22;86004;-93
2023/11/23 00:02:33;;;;;;;8.20;6.65;;;22.40;55.60;;;;;;6132409;22;87688;-90
2023/11/23 00:04:58;;;;;;;7.50;6.55;;;22.40;55.40;;;;;;6130233;22;89042;-91
2023/11/23 00:07:24;;;;;;;7.18;6.35;;;22.40;55.40;;;;;;6129386;22;85934;-92
2023/11/23 00:09:50;;;;;;;7.15;5.97;;;22.40;55.40;;;;;;6156816;22;85838;-90
2023/11/23 00:12:16;;;;;;;6.85;5.63;;;22.40;55.40;;;;;;6155411;22;89939;-92
2023/11/23 00:14:41;;;;;;;6.93;6.22;;;22.30;55.40;;;;;;6130835;22;87153;-93
2023/11/23 00:17:08;;;;;;;10.10;6.25;;;22.30;55.40;;;;;;6130633;22;86172;-93
2023/11/23 00:19:34;;;;;;;9.15;6.28;;;22.30;55.30;;;;;;6130522;22;86596;-92
2023/11/23 00:21:59;;;;;;;6.63;5.43;;;22.30;55.60;;;;;;6129637;22;87532;-92
2023/11/23 00:24:26;;;;;;;8.05;6.10;;;22.30;55.50;;;;;;6131722;22;87901;-91
2023/11/23 00:26:53;;;;;;;7.50;6.18;;;22.20;55.40;;;;;;6132139;22;86021;-92
2023/11/23 00:29:20;;;;;;;8.15;6.45;;;22.20;55.50;;;;;;6130168;22;86651;-93
2023/11/23 00:31:46;;;;;;;8.27;6.10;;;22.20;55.70;;;;;;6131284;22;88604;-93
2023/11/23 00:34:11;;;;;;;9.27;5.80;;;22.20;55.60;;;;;;6145010;22;88149;-93
2023/11/23 00:36:37;;;;;;;7.07;6.15;;;22.20;55.50;;;;;;6169532;22;85475;-95
2023/11/23 00:39:04;;;;;;;6.72;5.60;;;22.20;55.70;;;;;;6170499;22;85391;-93
2023/11/23 00:41:30;;;;;;;8.57;6.20;;;22.20;55.60;;;;;;6145084;22;87249;-94
2023/11/23 00:43:57;;;;;;;7.70;6.45;;;22.10;55.50;;;;;;6144469;22;87389;-94
2023/11/23 00:46:27;;;;;;;6.72;5.63;;;22.10;55.70;;;;;;6142973;22;85367;-93
2023/11/23 00:48:54;;;;;;;7.28;5.78;;;22.10;55.70;;;;;;6170354;22;85572;-94
2023/11/23 00:51:23;;;;;;;6.55;5.85;;;22.10;56.40;;;;;;6144948;22;87983;-95
2023/11/23 00:53:49;;;;;;;6.60;5.90;;;22.10;55.80;;;;;;6146099;22;87044;-93
2023/11/23 00:56:16;;;;;;;7.68;6.07;;;22.10;55.90;;;;;;6169428;22;85541;-94
2023/11/23 00:58:42;;;;;;;6.15;5.18;;;22.10;55.80;;;;;;6129287;22;85638;-94
2023/11/23 01:01:15;;;;;;;6.93;5.30;;;22.10;55.70;;;;;;6138568;22;88528;-94
2023/11/23 01:03:40;;;;;;;7.00;5.20;;;22.10;55.90;;;;;;6118973;22;87433;-94
2023/11/23 01:06:09;;;;;;;7.40;6.20;;;22.10;55.90;;;;;;6144293;22;85748;-94
2023/11/23 01:08:35;;;;;;;7.70;5.45;;;22.00;55.70;;;;;;6142970;22;85628;-94
2023/11/23 01:11:02;;;;;;;7.85;6.55;;;22.10;56.00;;;;;;6142101;22;88214;-94
2023/11/23 01:13:31;;;;;;;7.55;5.78;;;22.10;55.80;;;;;;6140142;22;86698;-95
2023/11/23 01:15:57;;;;;;;6.55;5.72;;;22.10;55.80;;;;;;6157328;22;85933;-94
2023/11/23 01:18:26;;;;;;;6.25;5.45;;;22.10;55.80;;;;;;6143718;22;85569;-95
2023/11/23 01:21:03;;;;;;;8.48;5.95;;;22.10;55.70;;;;;;6144955;22;86955;-93
2023/11/23 01:23:29;;;;;;;8.70;5.35;;;22.10;55.80;;;;;;6104754;22;90188;-93
2023/11/23 01:25:55;;;;;;;7.50;6.07;;;22.10;55.60;;;;;;6099731;23;85944;-93
2023/11/23 01:28:21;;;;;;;6.88;5.78;;;22.10;55.70;;;;;;6105693;23;85621;-93
2023/11/23 01:30:47;;;;;;;7.15;6.03;;;22.10;55.70;;;;;;6102715;23;87494;-93
2023/11/23 01:33:13;;;;;;;6.90;5.45;;;22.10;55.60;;;;;;6103148;23;86571;-94
2023/11/23 01:35:38;;;;;;;6.40;5.30;;;22.10;55.50;;;;;;6129785;23;85500;-93
2023/11/23 01:38:04;;;;;;;8.07;5.82;;;22.10;55.50;;;;;;6105891;23;85670;-92
2023/11/23 01:40:30;;;;;;;6.60;5.80;;;22.10;55.60;;;;;;6102237;23;89298;-94
2023/11/23 01:43:06;;;;;;;6.22;5.60;;;22.10;55.60;;;;;;6127637;22;88568;-95
2023/11/23 01:45:32;;;;;;;6.10;4.90;;;22.20;55.50;;;;;;6104445;23;85757;-93
2023/11/23 01:47:58;;;;;;;6.85;5.72;;;22.10;55.40;;;;;;6101401;23;85377;-94
2023/11/23 01:50:25;;;;;;;6.30;5.68;;;22.10;55.50;;;;;;6124823;23;86328;-91
2023/11/23 01:52:51;;;;;;;6.35;5.53;;;22.20;55.60;;;;;;6119304;22;86226;-92
2023/11/23 01:55:18;;;;;;;6.57;5.13;;;22.20;55.40;;;;;;6120624;22;86518;-92
2023/11/23 01:57:46;;;;;;;6.20;4.68;;;22.20;55.30;;;;;;6093658;23;86500;-91
2023/11/23 02:00:13;;;;;;;5.30;4.63;;;22.20;55.40;;;;;;6118863;23;87824;-93
2023/11/23 02:02:41;;;;;;;6.75;5.60;;;22.20;55.30;;;;;;6097013;23;86246;-94
2023/11/23 02:05:09;;;;;;;5.97;5.15;;;22.20;55.20;;;;;;6120174;22;86014;-92
2023/11/23 02:07:35;;;;;;;6.75;5.60;;;22.20;55.30;;;;;;6096218;23;86569;-92
2023/11/23 02:10:01;;;;;;;5.95;5.32;;;22.20;55.00;;;;;;6120224;22;90741;-94
2023/11/23 02:12:28;;;;;;;6.05;5.47;;;22.20;55.10;;;;;;6119812;22;87030;-92
2023/11/23 02:14:54;;;;;;;6.60;5.60;;;22.20;55.10;;;;;;6097226;23;85903;-89
2023/11/23 02:17:21;;;;;;;7.20;5.55;;;22.20;55.10;;;;;;6095090;23;86600;-94
2023/11/23 02:19:51;;;;;;;6.70;5.18;;;22.20;54.90;;;;;;6094203;23;87549;-93
2023/11/23 02:22:17;;;;;;;6.55;5.43;;;22.20;55.00;;;;;;6119099;22;88942;-92
2023/11/23 02:24:43;;;;;;;5.63;4.93;;;22.20;55.00;;;;;;6119358;22;86143;-93
2023/11/23 02:27:10;;;;;;;5.60;4.47;;;22.20;54.80;;;;;;6119051;23;86530;-93
2023/11/23 02:29:37;;;;;;;6.22;5.38;;;22.20;54.90;;;;;;6096411;23;88878;-92
2023/11/23 02:32:15;;;;;;;6.55;5.15;;;22.20;54.70;;;;;;6119723;22;88682;-91
2023/11/23 02:34:40;;;;;;;4.97;4.47;;;22.20;54.80;;;;;;6120421;22;86127;-91
2023/11/23 02:37:06;;;;;;;6.18;4.95;;;22.20;54.70;;;;;;6093995;23;85655;-93
2023/11/23 02:39:32;;;;;;;7.63;5.53;;;22.20;54.60;;;;;;6119836;22;90026;-92
2023/11/23 02:41:59;;;;;;;5.90;4.47;;;22.20;54.80;;;;;;6122801;23;87897;-93
2023/11/23 02:44:25;;;;;;;5.70;5.07;;;22.20;54.80;;;;;;6096394;23;87095;-93
2023/11/23 02:46:51;;;;;;;7.72;5.47;;;22.10;54.70;;;;;;6120632;22;86665;-92
2023/11/23 02:49:18;;;;;;;5.53;4.93;;;22.10;54.60;;;;;;6096730;23;90110;-94
2023/11/23 02:51:45;;;;;;;5.50;4.88;;;22.10;55.20;;;;;;6094899;23;88478;-92
2023/11/23 02:54:10;;;;;;;6.00;5.38;;;22.10;54.60;;;;;;6121535;23;85938;-92
2023/11/23 02:56:36;;;;;;;5.13;4.53;;;22.10;54.60;;;;;;6096779;23;85762;-92
2023/11/23 02:59:07;;;;;;;6.47;5.30;;;22.10;54.70;;;;;;6096758;23;88670;-93
2023/11/23 03:01:33;;;;;;;5.65;4.43;;;22.10;54.70;;;;;;6090942;23;87509;-93
2023/11/23 03:03:59;;;;;;;7.13;5.00;;;22.10;54.60;;;;;;6121206;22;86658;-91
2023/11/23 03:06:26;;;;;;;6.38;4.82;;;22.00;54.60;;;;;;6097531;23;85533;-92
2023/11/23 03:08:52;;;;;;;5.22;4.72;;;22.00;54.60;;;;;;6122682;23;89195;-93
2023/11/23 03:11:22;;;;;;;5.10;4.55;;;22.00;54.60;;;;;;6120852;22;87989;-91
2023/11/23 03:13:48;;;;;;;5.55;4.93;;;22.00;54.70;;;;;;6095369;23;86314;-92
2023/11/23 03:16:14;;;;;;;5.70;5.03;;;22.00;54.70;;;;;;6097755;23;87581;-94
2023/11/23 03:18:40;;;;;;;7.78;4.80;;;21.90;54.60;;;;;;6121928;22;87480;-91
2023/11/23 03:21:06;;;;;;;6.13;4.95;;;21.90;54.60;;;;;;6121144;23;88234;-91
2023/11/23 03:23:31;;;;;;;6.88;4.45;;;21.90;54.50;;;;;;6128383;23;86003;-92
2023/11/23 03:25:58;;;;;;;6.50;5.47;;;21.90;54.60;;;;;;6101368;23;85691;-92
2023/11/23 03:28:24;;;;;;;5.68;4.75;;;21.90;54.70;;;;;;6100811;23;88678;-93
2023/11/23 03:30:50;;;;;;;6.00;4.78;;;21.90;54.60;;;;;;6123338;22;86749;-93
2023/11/23 03:33:16;;;;;;;5.85;4.90;;;21.90;54.60;;;;;;6101007;23;86353;-92
2023/11/23 03:35:41;;;;;;;6.35;4.93;;;21.90;54.70;;;;;;6100825;23;86071;-93
2023/11/23 03:38:07;;;;;;;5.80;4.65;;;21.80;54.60;;;;;;6100473;23;88470;-91
2023/11/23 03:40:33;;;;;;;4.45;4.05;;;21.80;54.70;;;;;;6127825;23;87176;-93
2023/11/23 03:42:59;;;;;;;5.25;4.70;;;21.80;54.70;;;;;;6101097;23;85956;-92
2023/11/23 03:45:25;;;;;;;6.40;5.30;;;21.80;54.70;;;;;;6100553;23;86172;-92
2023/11/23 03:47:52;;;;;;;5.68;5.13;;;21.80;54.60;;;;;;6127171;23;87331;-92
2023/11/23 03:50:18;;;;;;;5.20;4.03;;;21.80;54.60;;;;;;6099624;23;87459;-91
2023/11/23 03:52:44;;;;;;;5.80;4.68;;;21.80;54.70;;;;;;6126828;23;86252;-90
2023/11/23 03:55:10;;;;;;;5.45;4.68;;;21.70;54.70;;;;;;6100133;23;86034;-91
2023/11/23 03:57:38;;;;;;;4.88;4.38;;;21.70;54.60;;;;;;6098541;23;87526;-93
2023/11/23 04:00:05;;;;;;;5.45;4.80;;;21.70;54.60;;;;;;6100832;23;87435;-91
2023/11/23 04:02:31;;;;;;;5.72;5.07;;;21.70;54.60;;;;;;6101496;23;85932;-91
2023/11/23 04:04:57;;;;;;;6.50;5.15;;;21.70;54.60;;;;;;6125067;22;86183;-91
2023/11/23 04:07:23;;;;;;;5.55;4.75;;;21.60;54.60;;;;;;6101383;23;89051;-93
2023/11/23 04:09:49;;;;;;;5.28;4.40;;;21.60;54.70;;;;;;6098371;23;91414;-92
2023/11/23 04:12:15;;;;;;;5.28;4.65;;;21.60;54.80;;;;;;6102271;23;85999;-92
2023/11/23 04:14:41;;;;;;;5.60;4.72;;;21.60;54.80;;;;;;6127243;23;86414;-92
2023/11/23 04:17:06;;;;;;;5.00;4.50;;;21.60;54.80;;;;;;6124891;23;87258;-91
2023/11/23 04:19:32;;;;;;;5.80;4.88;;;21.60;54.80;;;;;;6099369;23;87149;-92
2023/11/23 04:21:59;;;;;;;5.13;4.63;;;21.60;54.70;;;;;;6099456;23;87048;-91
2023/11/23 04:24:26;;;;;;;5.60;4.93;;;21.50;55.00;;;;;;6099886;23;85702;-92
2023/11/23 04:26:52;;;;;;;4.97;4.47;;;21.50;54.80;;;;;;6127199;23;86597;-92
2023/11/23 04:29:19;;;;;;;4.95;4.30;;;21.50;54.80;;;;;;6100439;23;88030;-90
2023/11/23 04:31:45;;;;;;;5.72;5.00;;;21.50;54.80;;;;;;6101324;23;86105;-92
2023/11/23 04:34:11;;;;;;;5.60;4.47;;;21.50;54.90;;;;;;6099842;23;85581;-93
2023/11/23 04:36:37;;;;;;;5.50;4.88;;;21.50;54.80;;;;;;6123552;22;90255;-91
2023/11/23 04:39:05;;;;;;;7.18;5.30;;;21.50;54.80;;;;;;6099497;23;88514;-92
2023/11/23 04:41:31;;;;;;;4.80;4.32;;;21.50;54.80;;;;;;6098404;23;86144;-91
2023/11/23 04:43:57;;;;;;;4.82;4.32;;;21.50;55.00;;;;;;6101645;23;86339;-91
2023/11/23 04:46:23;;;;;;;4.65;4.15;;;21.50;54.90;;;;;;6100438;23;87590;-91
2023/11/23 04:48:48;;;;;;;5.07;4.32;;;21.40;54.80;;;;;;6099694;23;88415;-92
2023/11/23 04:51:16;;;;;;;6.45;5.15;;;21.40;55.00;;;;;;6127173;23;85841;-91
2023/11/23 04:53:42;;;;;;;5.10;4.38;;;21.40;54.90;;;;;;6129555;23;86042;-91
2023/11/23 04:56:08;;;;;;;5.13;4.10;;;21.40;54.90;;;;;;6100865;23;88627;-90
2023/11/23 04:58:36;;;;;;;6.25;4.60;;;21.40;54.90;;;;;;6126321;23;85739;-94
2023/11/23 05:01:02;;;;;;;5.75;4.57;;;21.40;54.90;;;;;;6099906;23;86059;-91
2023/11/23 05:03:28;;;;;;;5.82;5.00;;;21.40;55.00;;;;;;6124822;23;85883;-92
2023/11/23 05:05:54;;;;;;;5.05;4.45;;;21.40;54.90;;;;;;6126377;23;86983;-93
2023/11/23 05:08:20;;;;;;;4.95;4.10;;;21.30;55.00;;;;;;6098629;23;88270;-91
2023/11/23 05:10:46;;;;;;;5.10;4.60;;;21.30;55.00;;;;;;6098886;23;86627;-90
2023/11/23 05:13:13;;;;;;;5.13;4.45;;;21.30;55.00;;;;;;6100376;23;86598;-92
2023/11/23 05:15:39;;;;;;;4.97;4.25;;;21.30;54.90;;;;;;6100102;23;89658;-90
2023/11/23 05:18:05;;;;;;;5.57;4.63;;;21.30;54.90;;;;;;6100993;23;87219;-92
2023/11/23 05:20:30;;;;;;;4.85;4.35;;;21.30;55.10;;;;;;6101907;23;86260;-90
2023/11/23 05:22:56;;;;;;;5.43;4.47;;;21.30;55.10;;;;;;6099266;23;86959;-92
2023/11/23 05:25:23;;;;;;;5.20;4.43;;;21.30;55.30;;;;;;6099368;23;89328;-90
2023/11/23 05:27:49;;;;;;;4.18;3.78;;;21.30;55.00;;;;;;6099756;23;86585;-93
2023/11/23 05:30:16;;;;;;;5.55;4.38;;;21.30;55.10;;;;;;6100325;23;86040;-93
2023/11/23 05:32:41;;;;;;;4.93;4.43;;;21.30;55.10;;;;;;6101626;23;85989;-92
2023/11/23 05:35:07;;;;;;;5.05;4.40;;;21.20;55.00;;;;;;6098835;23;87821;-93
2023/11/23 05:37:33;;;;;;;5.88;4.43;;;21.20;55.00;;;;;;6125632;23;86100;-90
2023/11/23 05:39:59;;;;;;;4.50;3.95;;;21.20;55.10;;;;;;6099654;23;86154;-93
2023/11/23 05:42:26;;;;;;;5.47;4.50;;;21.20;55.00;;;;;;6124266;23;86137;-91
2023/11/23 05:44:52;;;;;;;5.30;4.57;;;21.20;55.00;;;;;;6075826;23;87646;-93
2023/11/23 05:47:18;;;;;;;5.63;4.60;;;21.20;55.00;;;;;;6099750;23;86161;-92
2023/11/23 05:49:44;;;;;;;4.88;3.88;;;21.20;55.10;;;;;;6100270;23;86046;-92
2023/11/23 05:52:09;;;;;;;4.85;4.32;;;21.20;55.00;;;;;;6100864;23;86076;-90
2023/11/23 05:54:36;;;;;;;4.90;4.20;;;21.20;55.10;;;;;;6099688;23;87996;-91
2023/11/23 05:57:01;;;;;;;4.22;3.83;;;21.20;55.10;;;;;;6097820;23;87390;-91
2023/11/23 05:59:27;;;;;;;5.13;4.63;;;21.20;55.10;;;;;;6099544;23;85560;-92
2023/11/23 06:01:53;;;;;;;4.80;4.10;;;21.20;55.10;;;;;;6125626;23;86303;-93
2023/11/23 06:04:18;;;;;;;4.25;3.80;;;21.10;55.00;;;;;;6098473;23;88968;-91
2023/11/23 06:06:44;;;;;;;4.25;3.85;;;21.10;55.00;;;;;;6098951;23;89129;-93
2023/11/23 06:09:09;;;;;;;4.82;3.55;;;21.10;54.70;;;;;;6100364;23;86019;-94
2023/11/23 06:11:35;;;;;;;5.18;3.88;;;21.10;54.20;;;;;;6099630;23;86329;-91
2023/11/23 06:14:01;;;;;;;5.13;3.95;;;21.10;54.40;;;;;;6085431;23;87186;-92
2023/11/23 06:16:27;;;;;;;4.13;3.72;;;21.10;54.60;;;;;;6100086;23;88152;-93
2023/11/23 06:18:52;;;;;;;5.05;3.90;;;21.10;54.60;;;;;;6126209;23;85694;-92
2023/11/23 06:21:18;;;;;;;6.45;4.10;;;21.10;54.50;;;;;;6100222;23;85988;-90
2023/11/23 06:23:44;;;;;;;4.10;3.60;;;21.10;54.50;;;;;;6126913;23;87463;-94
2023/11/23 06:26:10;;;;;;;5.13;4.40;;;21.10;54.50;;;;;;6100728;23;87403;-92
2023/11/23 06:28:37;;;;;;;4.05;3.65;;;21.10;54.50;;;;;;6101017;23;85996;-91
2023/11/23 06:31:03;;;;;;;5.50;4.00;;;21.00;54.50;;;;;;6101155;23;86251;-93
2023/11/23 06:33:29;;;;;;;5.65;3.80;;;21.00;54.40;;;;;;6100797;23;89031;-91
2023/11/23 06:35:57;;;;;;;4.93;3.80;;;21.00;54.50;;;;;;6101368;23;87506;-92
2023/11/23 06:38:24;;;;;;;4.15;3.75;;;21.00;54.50;;;;;;6099419;23;85838;-91
2023/11/23 06:40:50;;;;;;;5.22;4.00;;;21.00;54.30;;;;;;6099802;23;86224;-91
2023/11/23 06:43:15;;;;;;;4.18;3.45;;;21.00;54.40;;;;;;6099005;23;88729;-92
2023/11/23 06:45:41;;;;;;;4.60;3.90;;;21.00;54.50;;;;;;6099895;23;86771;-92
2023/11/23 06:48:07;;;;;;;4.53;4.03;;;21.00;54.70;;;;;;6125031;23;86272;-89
2023/11/23 06:50:33;;;;;;;4.25;3.85;;;21.00;54.70;;;;;;6100331;23;85979;-91
2023/11/23 06:52:59;;;;;;;6.18;3.92;;;21.00;55.30;;;;;;6101217;23;87213;-90
2023/11/23 06:55:25;;;;;;;5.45;4.32;;;21.00;54.70;;;;;;6097950;23;93271;-89
2023/11/23 06:57:51;;;;;;;4.07;3.65;;;21.00;54.60;;;;;;6097388;23;89701;-91
2023/11/23 07:00:25;;;;;;;4.88;3.50;;;21.00;54.70;;;;;;6099538;23;87470;-90
2023/11/23 07:02:58;;;;;;;4.43;3.33;;;21.00;54.80;;;;;;6103911;23;88511;-91
2023/11/23 07:05:25;;;;;;;5.72;4.10;;;21.00;54.40;;;;;;6099919;23;92120;-90
2023/11/23 07:07:52;;;;;;;6.35;4.75;;;21.00;54.30;;;;;;6100390;23;89866;-92
2023/11/23 07:10:18;;;;;;;8.98;4.78;;;21.00;54.20;;;;;;6101525;23;87426;-93
2023/11/23 07:12:45;;;;;;;9.70;5.20;;;20.90;54.40;;;;;;6100813;23;87279;-93
2023/11/23 07:15:14;;;;;;;7.82;4.63;;;21.00;54.70;;;;;;6096344;23;88963;-92
2023/11/23 07:17:40;;;;;;;10.20;5.20;;;21.00;54.60;;;;;;6099838;23;90217;-87
2023/11/23 07:21:03;;;;;;;5.40;3.80;;;21.00;54.60;;;;;;6106602;23;87260;-96
2023/11/23 07:23:29;;;;;;;7.80;4.63;;;21.10;54.90;;;;;;6078834;23;90255;-88
2023/11/23 07:25:58;;;;;;;8.77;4.35;;;21.10;55.00;;;;;;6099182;23;91833;-93
2023/11/23 07:28:25;;;;;;;7.03;4.50;;;21.20;55.20;;;;;;6102344;23;87395;-92
2023/11/23 07:30:56;;;;;;;11.30;5.00;;;21.20;55.10;;;;;;6103522;23;88189;-94
2023/11/23 07:33:37;;;;;;;11.93;5.28;;;21.20;54.70;;;;;;6127759;23;87990;-92
2023/11/23 07:36:06;;;;;;;8.95;4.35;;;21.20;54.70;;;;;;6098342;23;89017;-91
2023/11/23 07:38:32;;;;;;;9.57;4.75;;;21.30;54.90;;;;;;6097444;23;88372;-92
2023/11/23 07:41:05;;;;;;;9.65;5.43;;;21.30;55.20;;;;;;6097609;23;87233;-90
2023/11/23 07:43:31;;;;;;;13.57;5.60;;;21.30;55.00;;;;;;6100312;23;87152;-91
2023/11/23 07:46:00;;;;;;;6.50;4.20;;;21.30;55.20;;;;;;6123600;23;87471;-91
2023/11/23 07:48:26;;;;;;;6.78;3.85;;;21.40;55.20;;;;;;6126280;23;89237;-91
2023/11/23 07:50:53;;;;;;;9.90;4.97;;;21.30;55.50;;;;;;6126821;23;86892;-91
2023/11/23 07:56:05;;;;;;;9.52;4.63;;;21.40;55.50;;;;;;6087661;23;90787;-90
2023/11/23 07:58:31;;;;;;;7.57;4.45;;;21.40;55.50;;;;;;6100186;23;90109;-91
2023/11/23 08:00:57;;;;;;;9.60;4.00;;;21.40;55.40;;;;;;6125539;23;87448;-91
2023/11/23 08:03:23;;;;;;;11.70;4.65;;;21.40;55.50;;;;;;6101342;23;90414;-92
2023/11/23 08:05:48;;;;;;;7.00;4.20;;;21.40;55.60;;;;;;6097540;23;91969;-90
2023/11/23 08:08:14;;;;;;;13.68;4.97;;;21.40;55.60;;;;;;6125097;23;89025;-92
2023/11/23 08:10:40;;;;;;;9.30;4.57;;;21.40;55.80;;;;;;6103160;23;87466;-92
2023/11/23 08:13:05;;;;;;;6.05;4.03;;;21.40;55.70;;;;;;6104710;23;88960;-93
2023/11/23 08:15:32;;;;;;;6.88;4.40;;;21.40;55.70;;;;;;6131859;23;87480;-91
2023/11/23 08:17:57;;;;;;;9.30;4.20;;;21.50;55.70;;;;;;6102808;23;87241;-90
2023/11/23 08:20:26;;;;;;;7.38;4.25;;;21.40;55.80;;;;;;6100407;23;88387;-89
2023/11/23 08:22:52;;;;;;;7.30;4.28;;;21.50;55.90;;;;;;6104110;23;90522;-92
2023/11/23 08:25:18;;;;;;;10.23;4.43;;;21.50;55.80;;;;;;6103578;23;88574;-94
2023/11/23 08:27:44;;;;;;;7.45;3.72;;;21.50;55.80;;;;;;6080552;23;91504;-93
2023/11/23 08:30:25;;;;;;;5.22;3.67;;;21.50;56.00;;;;;;6079061;23;87252;-91
2023/11/23 08:32:50;;;;;;;7.47;4.35;;;21.50;56.00;;;;;;6087729;23;88761;-93
2023/11/23 08:35:16;;;;;;;8.07;4.72;;;21.50;56.10;;;;;;6102070;23;90756;-91
2023/11/23 08:37:42;;;;;;;8.25;3.47;;;21.50;55.80;;;;;;6095229;23;89665;-92
2023/11/23 08:40:11;;;;;;;7.22;3.95;;;21.50;55.50;;;;;;6090800;22;88719;-93
2023/11/23 08:52:59;;;;;;;7.43;4.00;;;21.60;55.80;;;;;;6122727;22;89460;-90
2023/11/23 08:55:25;;;;;;;9.10;4.53;;;21.60;55.90;;;;;;6126963;22;88702;-90
2023/11/23 08:57:51;;;;;;;8.73;3.72;;;21.60;55.90;;;;;;6154691;22;88431;-91
2023/11/23 09:00:23;;;;;;;19.33;5.13;;;21.60;55.90;;;;;;6131816;22;87103;-90
2023/11/23 09:02:53;;;;;;;13.98;5.38;;;21.70;55.50;;;;;;5966248;22;86954;-91
2023/11/23 09:06:13;;;;;;;12.10;6.15;;;21.70;55.30;;;;;;6091412;22;89608;-96
2023/11/23 09:08:40;;;;;;;11.55;4.63;;;21.70;55.20;;;;;;5989035;23;90774;-95
2023/11/23 09:11:06;;;;;;;12.68;4.63;;;21.80;55.50;;;;;;5968366;23;87844;-94
2023/11/23 09:13:33;;;;;;;11.20;4.25;;;21.80;55.60;;;;;;5990132;23;87572;-91
2023/11/23 09:16:27;;;;;;;;;;;;;;;;;;;;;
2023/11/23 09:18:59;;;;;;;8.68;4.03;;;21.80;55.60;;;;;;6005245;23;87406;-92
2023/11/23 09:21:25;;;;;;;14.77;4.60;;;21.80;55.70;;;;;;6101974;22;86881;-92
2023/11/23 09:23:53;;;;;;;13.88;4.90;;;21.80;55.90;;;;;;6136917;22;88543;-92
2023/11/23 09:27:00;;;;;;;16.38;4.63;;;21.80;55.90;;;;;;6137457;22;91779;-93
2023/11/23 09:29:26;;;;;;;11.75;4.47;;;21.80;56.00;;;;;;6140863;22;89840;-90
2023/11/23 09:32:30;;;;;;;10.68;4.95;;;21.90;56.10;;;;;;6167124;22;87084;-89
2023/11/23 09:37:53;;;;;;;11.70;4.90;;;22.00;58.00;;;;;;5958994;23;87950;-91
2023/11/23 09:40:23;;;;;;;9.68;4.95;;;21.90;56.80;;;;;;6134244;22;90605;-94
2023/11/23 09:42:58;;;;;;;10.50;3.90;;;21.90;57.00;;;;;;6123853;22;86871;-96
2023/11/23 09:45:28;;;;;;;11.68;4.40;;;21.90;57.10;;;;;;6104634;22;89251;-96
2023/11/23 09:48:01;;;;;;;13.05;4.75;;;21.90;58.00;;;;;;6120794;22;88002;-95
2023/11/23 09:50:28;;;;;;;10.70;4.38;;;21.90;57.20;;;;;;6110972;22;92180;-92
2023/11/23 09:53:14;;;;;;;12.38;4.88;;;21.90;56.90;;;;;;6137176;22;87344;-91
2023/11/23 09:55:41;;;;;;;11.40;5.15;;;21.90;55.90;;;;;;6102397;22;87272;-96
2023/11/23 09:58:06;;;;;;;12.23;4.85;;;21.90;55.60;;;;;;6127451;22;87805;-91
2023/11/23 10:00:35;;;;;;;8.10;5.03;;;21.90;55.50;;;;;;6129600;22;90295;-33
2023/11/23 10:03:07;;;;;;;11.50;4.95;;;21.90;55.70;;;;;;6085177;23;88359;-33
2023/11/23 10:05:33;;;;;;;13.75;5.20;;;21.90;55.90;;;;;;6113430;23;87216;-21
2023/11/23 10:07:59;;;;;;;8.90;4.65;;;21.90;56.40;;;;;;6079675;23;90368;-21
2023/11/23 10:10:27;;;;;;;10.55;4.70;;;21.90;56.40;;;;;;6113656;23;87366;-23
2023/11/23 10:12:54;;;;;;;13.35;4.93;;;21.90;56.30;;;;;;6112333;23;87537;-21
2023/11/23 10:15:21;;;;;;;12.27;4.93;;;21.80;56.60;;;;;;6114616;23;89119;-21
2023/11/23 10:17:47;;;;;;;10.00;4.65;;;21.90;56.30;;;;;;6114752;23;88018;-20
2023/11/23 10:20:15;;;;;;;12.68;4.63;;;21.90;55.30;;;;;;6114335;23;87777;-24
2023/11/23 10:22:48;;;;;;;13.80;4.32;;;21.90;55.40;;;;;;6114900;23;87286;-22
2023/11/23 10:25:24;;;;;;;8.45;4.22;;;21.90;55.90;;;;;;6113216;23;87131;-19
2023/11/23 10:27:50;;;;;;;8.48;4.38;;;21.90;56.10;;;;;;6107002;23;89946;-13
2023/11/23 10:30:16;;;;;;;9.27;4.40;;;22.00;56.00;;;;;;6083055;23;89314;-20
2023/11/23 10:32:42;;;;;;;6.43;4.20;;;22.00;55.90;;;;;;6117994;23;87311;-21
2023/11/23 10:35:09;;;;;;;7.72;4.25;;;22.00;56.10;;;;;;6109640;23;87176;-18
2023/11/23 10:37:38;;;;;;;10.27;4.47;;;22.00;55.80;;;;;;6106885;23;88171;-13
2023/11/23 10:40:06;;;;;;;11.52;4.40;;;22.00;55.80;;;;;;6112053;23;88684;-21
2023/11/23 10:42:33;;;;;;;11.25;4.82;;;22.00;56.00;;;;;;6085832;23;87691;-10
2023/11/23 10:45:00;;;;;;;9.15;4.40;;;22.00;56.10;;;;;;6115198;23;86783;-15
2023/11/23 10:47:28;;;;;;;10.57;4.70;;;22.10;55.70;;;;;;6114316;23;93143;-11
2023/11/23 10:50:00;;;;;;;8.73;4.20;;;22.10;56.80;;;;;;6113091;23;88940;-12
2023/11/23 10:52:28;;;;;;;12.00;4.55;;;22.10;57.20;;;;;;6113671;23;88016;-15
2023/11/23 10:54:54;;;;;;;9.32;4.32;;;22.10;57.60;;;;;;6114062;23;87422;-13
2023/11/23 10:57:21;;;;;;;11.10;4.60;;;22.10;58.80;;;;;;6114574;23;88440;-17
2023/11/23 10:59:48;;;;;;;7.88;4.63;;;22.10;58.50;;;;;;6113981;23;87883;-15
2023/11/23 11:02:14;;;;;;;9.40;4.07;;;22.10;60.20;;;;;;6008429;22;87545;-16
2023/11/23 11:04:40;;;;;;;10.55;4.18;;;22.10;58.90;;;;;;6055715;23;88097;-12
2023/11/23 11:07:11;;;;;;;10.63;4.10;;;22.10;58.00;;;;;;6056125;23;88342;-12
2023/11/23 11:09:36;;;;;;;6.78;3.53;;;22.10;57.90;;;;;;6057019;23;89177;-15
2023/11/23 11:12:07;;;;;;;9.25;4.45;;;22.10;57.70;;;;;;6055469;23;87256;-13
2023/11/23 11:14:36;;;;;;;6.93;3.83;;;22.10;57.80;;;;;;6056828;23;88538;-14
2023/11/23 11:17:06;;;;;;;8.52;3.72;;;22.10;57.70;;;;;;6053601;23;90317;-16
2023/11/23 11:19:48;;;;;;;7.47;3.88;;;22.10;57.80;;;;;;6056295;23;89426;-15
2023/11/23 11:22:14;;;;;;;6.68;3.70;;;22.10;57.70;;;;;;6054483;23;87262;-16
2023/11/23 11:24:41;;;;;;;7.68;3.85;;;22.10;57.70;;;;;;6055244;23;87636;-12
2023/11/23 11:27:10;;;;;;;6.30;3.80;;;22.10;57.10;;;;;;6055212;23;88917;-11
2023/11/23 11:29:36;;;;;;;;;;;22.10;56.70;;;;;;6057729;23;89096;-13
2023/11/23 11:32:07;;;;;;;6.10;3.30;;;22.10;56.50;;;;;;6058621;23;87470;-12
2023/11/23 11:34:34;;;;;;;7.82;3.80;;;22.10;56.50;;;;;;6056947;23;88734;-11
2023/11/23 11:37:01;;;;;;;6.45;3.67;;;22.20;56.40;;;;;;6057936;23;89400;-13
2023/11/23 11:39:31;;;;;;;8.70;3.78;;;22.20;56.50;;;;;;6057327;23;88820;-14
2023/11/23 11:42:03;;;;;;;6.97;3.65;;;22.20;56.60;;;;;;6056391;23;88380;-11
2023/11/23 11:44:29;;;;;;;7.03;3.83;;;22.20;56.90;;;;;;6085273;23;92778;-20
2023/11/23 11:46:56;;;;;;;6.13;3.47;;;22.20;56.80;;;;;;6086143;23;89550;-15
2023/11/23 11:49:26;;;;;;;8.55;4.05;;;22.20;56.70;;;;;;6085951;23;89248;-11
2023/11/23 11:51:52;;;;;;;5.35;3.10;;;22.20;56.70;;;;;;6086612;23;87311;-21
2023/11/23 11:54:22;;;;;;;5.13;3.13;;;22.20;56.50;;;;;;6085617;23;87364;-12
2023/11/23 11:56:49;;;;;;;6.20;3.25;;;22.20;56.50;;;;;;6085834;23;89494;-10
2023/11/23 11:59:21;;;;;;;4.05;3.08;;;22.20;56.60;;;;;;6085498;23;88950;-14
2023/11/23 12:01:47;;;;;;;7.10;2.95;;;22.20;56.50;;;;;;6106987;23;87285;-12
2023/11/23 12:04:18;;;;;;;9.70;3.72;;;22.20;56.70;;;;;;6115476;23;87207;-12
2023/11/23 12:06:45;;;;;;;7.20;3.45;;;22.20;56.80;;;;;;6114642;23;90082;-15
2023/11/23 12:09:19;;;;;;;7.97;2.88;;;22.20;56.80;;;;;;6115316;23;88707;-13
2023/11/23 12:11:48;;;;;;;5.90;3.22;;;22.20;56.70;;;;;;6116045;22;87208;-13
2023/11/23 12:14:14;;;;;;;;;;;22.20;56.40;;;;;;6114737;23;87396;-14
2023/11/23 12:16:40;;;;;;;6.30;2.95;;;22.20;56.30;;;;;;6117245;23;88218;-10
2023/11/23 12:19:19;;;;;;;5.78;3.22;;;22.20;56.40;;;;;;6115505;23;89565;-7
2023/11/23 12:21:56;;;;;;;8.30;3.83;;;22.20;56.40;;;;;;6117189;23;87360;-14
2023/11/23 12:24:23;;;;;;;4.82;2.47;;;22.20;56.10;;;;;;6115263;23;88183;-15
2023/11/23 12:26:51;;;;;;;4.10;2.65;;;22.30;56.10;;;;;;6116627;23;88962;-12
2023/11/23 12:29:24;;;;;;;4.73;2.43;;;22.20;55.90;;;;;;6115734;23;88750;-12
2023/11/23 12:31:51;;;;;;;4.25;2.95;;;22.20;56.00;;;;;;6115212;22;88191;-11
2023/11/23 12:34:16;;;;;;;6.00;3.05;;;22.20;56.10;;;;;;6116313;23;88302;-13
2023/11/23 12:36:43;;;;;;;6.57;2.85;;;22.20;56.10;;;;;;6115888;23;88584;-15
2023/11/23 12:39:09;;;;;;;5.25;2.83;;;22.20;55.80;;;;;;6113139;23;91458;-11
2023/11/23 12:41:35;;;;;;;4.93;3.00;;;22.20;55.90;;;;;;6117702;23;87364;-11
2023/11/23 12:44:01;;;;;;;4.70;3.00;;;22.20;56.00;;;;;;6116368;23;87689;-11
2023/11/23 12:46:27;;;;;;;5.30;2.70;;;22.20;56.10;;;;;;6114639;22;87525;-15
2023/11/23 12:48:52;;;;;;;4.68;2.70;;;22.20;56.20;;;;;;6115542;23;88646;-12
2023/11/23 12:51:18;;;;;;;5.53;2.78;;;22.20;56.10;;;;;;6115150;23;86902;-12
2023/11/23 12:53:44;;;;;;;5.05;2.63;;;22.20;56.10;;;;;;6116688;23;87630;-10
2023/11/23 12:56:10;;;;;;;5.25;2.40;;;22.20;55.90;;;;;;6113988;23;90812;-11
2023/11/23 12:58:37;;;;;;;5.45;2.78;;;22.20;56.00;;;;;;6114849;23;87871;-12
2023/11/23 13:01:03;;;;;;;5.30;2.38;;;22.20;56.10;;;;;;6116493;22;87026;-13
2023/11/23 13:03:29;;;;;;;3.85;2.42;;;22.20;56.10;;;;;;6115041;23;88600;-11
2023/11/23 13:05:55;;;;;;;4.65;2.65;;;22.20;55.90;;;;;;6116412;23;88277;-13